DAL8990 KSGU-KTUS
Flight info
| Callsign | DAL8990 |
|---|---|
| Flight time | 0h 55m |
| Altitude | 37000 |
| Route | DRK PXR DINGO6 |
| Aircraft | A320/M-FAA/L |
Departure
| Time | 2026-04-23 07:20 |
|---|---|
| Airport | St George Regional Airport (KSGU) |
Arrival
| Time | 2026-04-23 08:15 |
|---|---|
| Airport | Tucson International Airport (KTUS) |
| Time | Latitude | Longitude | Altitude | Speed | Heading |
|---|---|---|---|---|---|
| 2026-04-23 07:09 | 37.03082 | -113.50978 | 2860 ft | 0 kts | 117° |
| 2026-04-23 07:14 | 37.03091 | -113.50999 | 2860 ft | 4 kts | 120° |
| 2026-04-23 07:14 | 37.03105 | -113.51027 | 2859 ft | 4 kts | 125° |
| 2026-04-23 07:14 | 37.03122 | -113.51053 | 2857 ft | 4 kts | 139° |
| 2026-04-23 07:14 | 37.03143 | -113.51068 | 2856 ft | 4 kts | 184° |
| 2026-04-23 07:15 | 37.03150 | -113.51067 | 2859 ft | 0 kts | 203° |
| 2026-04-23 07:16 | 37.03127 | -113.51079 | 2856 ft | 11 kts | 203° |
| 2026-04-23 07:17 | 37.03040 | -113.51126 | 2857 ft | 15 kts | 203° |
| 2026-04-23 07:17 | 37.02937 | -113.51181 | 2853 ft | 18 kts | 203° |
| 2026-04-23 07:17 | 37.02816 | -113.51245 | 2852 ft | 20 kts | 203° |
| 2026-04-23 07:17 | 37.02677 | -113.51320 | 2851 ft | 23 kts | 203° |
| 2026-04-23 07:18 | 37.02520 | -113.51403 | 2845 ft | 26 kts | 203° |
| 2026-04-23 07:18 | 37.02423 | -113.51489 | 2845 ft | 13 kts | 267° |
| 2026-04-23 07:18 | 37.02452 | -113.51595 | 2842 ft | 14 kts | 291° |
| 2026-04-23 07:18 | 37.02485 | -113.51641 | 2842 ft | 0 kts | 27° |
| 2026-04-23 07:19 | 37.02488 | -113.51639 | 2842 ft | 8 kts | 27° |
| 2026-04-23 07:19 | 37.02796 | -113.51476 | 2852 ft | 85 kts | 22° |
| 2026-04-23 07:19 | 37.03520 | -113.51094 | 2868 ft | 141 kts | 23° |
| 2026-04-23 07:19 | 37.04547 | -113.50531 | 3115 ft | 167 kts | 24° |
| 2026-04-23 07:20 | 37.05604 | -113.49970 | 3836 ft | 166 kts | 22° |
| 2026-04-23 07:20 | 37.06657 | -113.49416 | 4533 ft | 163 kts | 21° |
| 2026-04-23 07:20 | 37.07741 | -113.48794 | 4860 ft | 183 kts | 32° |
| 2026-04-23 07:20 | 37.08537 | -113.47449 | 5060 ft | 212 kts | 74° |
| 2026-04-23 07:21 | 37.08370 | -113.45514 | 5375 ft | 243 kts | 116° |
| 2026-04-23 07:21 | 37.07146 | -113.43928 | 5788 ft | 271 kts | 149° |
| 2026-04-23 07:21 | 37.05358 | -113.42983 | 6385 ft | 285 kts | 162° |
| 2026-04-23 07:21 | 37.03428 | -113.42338 | 7244 ft | 289 kts | 167° |
| 2026-04-23 07:22 | 37.01464 | -113.41758 | 8158 ft | 291 kts | 167° |
| 2026-04-23 07:22 | 36.99497 | -113.41143 | 9099 ft | 292 kts | 167° |
| 2026-04-23 07:22 | 36.97532 | -113.40458 | 10022 ft | 294 kts | 166° |
| 2026-04-23 07:22 | 36.95502 | -113.39690 | 10393 ft | 317 kts | 165° |
| 2026-04-23 07:23 | 36.93348 | -113.38826 | 10898 ft | 330 kts | 164° |
| 2026-04-23 07:23 | 36.91154 | -113.37910 | 11654 ft | 334 kts | 164° |
| 2026-04-23 07:23 | 36.88941 | -113.36970 | 12471 ft | 337 kts | 164° |
| 2026-04-23 07:23 | 36.86746 | -113.36037 | 13289 ft | 339 kts | 165° |
| 2026-04-23 07:24 | 36.84504 | -113.35088 | 14061 ft | 341 kts | 165° |
| 2026-04-23 07:24 | 36.82243 | -113.34141 | 14725 ft | 345 kts | 166° |
| 2026-04-23 07:24 | 36.79946 | -113.33183 | 15364 ft | 349 kts | 167° |
| 2026-04-23 07:24 | 36.77630 | -113.32219 | 16015 ft | 353 kts | 167° |
| 2026-04-23 07:25 | 36.75285 | -113.31246 | 16624 ft | 357 kts | 168° |
| 2026-04-23 07:25 | 36.72899 | -113.30254 | 17219 ft | 363 kts | 168° |
| 2026-04-23 07:25 | 36.70494 | -113.29253 | 17836 ft | 367 kts | 168° |
| 2026-04-23 07:25 | 36.68057 | -113.28237 | 18421 ft | 371 kts | 169° |
| 2026-04-23 07:26 | 36.65597 | -113.27212 | 18949 ft | 375 kts | 169° |
| 2026-04-23 07:26 | 36.63101 | -113.26172 | 19485 ft | 379 kts | 169° |
| 2026-04-23 07:26 | 36.60581 | -113.25126 | 20021 ft | 383 kts | 169° |
| 2026-04-23 07:26 | 36.58040 | -113.24074 | 20604 ft | 387 kts | 170° |
| 2026-04-23 07:27 | 36.55468 | -113.23011 | 21130 ft | 391 kts | 170° |
| 2026-04-23 07:27 | 36.52867 | -113.21938 | 21592 ft | 396 kts | 170° |
| 2026-04-23 07:27 | 36.50243 | -113.20855 | 22124 ft | 400 kts | 170° |
| 2026-04-23 07:27 | 36.47620 | -113.19767 | 22658 ft | 404 kts | 170° |
| 2026-04-23 07:28 | 36.44940 | -113.18655 | 23202 ft | 408 kts | 170° |
| 2026-04-23 07:28 | 36.42233 | -113.17534 | 23694 ft | 412 kts | 171° |
| 2026-04-23 07:28 | 36.39503 | -113.16405 | 24125 ft | 415 kts | 171° |
| 2026-04-23 07:28 | 36.36754 | -113.15270 | 24553 ft | 418 kts | 171° |
| 2026-04-23 07:29 | 36.33986 | -113.14126 | 24976 ft | 421 kts | 171° |
| 2026-04-23 07:29 | 36.31195 | -113.12971 | 25343 ft | 424 kts | 171° |
| 2026-04-23 07:29 | 36.28390 | -113.11807 | 25712 ft | 427 kts | 171° |
| 2026-04-23 07:29 | 36.25566 | -113.10641 | 26100 ft | 429 kts | 171° |
| 2026-04-23 07:30 | 36.22732 | -113.09476 | 26538 ft | 430 kts | 172° |
| 2026-04-23 07:30 | 36.19886 | -113.08310 | 26930 ft | 432 kts | 172° |
| 2026-04-23 07:30 | 36.17016 | -113.07137 | 27331 ft | 435 kts | 172° |
| 2026-04-23 07:30 | 36.14133 | -113.05959 | 27744 ft | 438 kts | 172° |
| 2026-04-23 07:31 | 36.11230 | -113.04771 | 28182 ft | 441 kts | 172° |
| 2026-04-23 07:31 | 36.08307 | -113.03576 | 28540 ft | 444 kts | 172° |
| 2026-04-23 07:31 | 36.05370 | -113.02373 | 28836 ft | 447 kts | 172° |
| 2026-04-23 07:31 | 36.02413 | -113.01161 | 29197 ft | 449 kts | 173° |
| 2026-04-23 07:32 | 35.99439 | -112.99945 | 29532 ft | 451 kts | 173° |
| 2026-04-23 07:32 | 35.96451 | -112.98725 | 29862 ft | 454 kts | 173° |
| 2026-04-23 07:32 | 35.93445 | -112.97499 | 30161 ft | 456 kts | 173° |
| 2026-04-23 07:32 | 35.90428 | -112.96266 | 30405 ft | 458 kts | 173° |
| 2026-04-23 07:33 | 35.87396 | -112.95029 | 30677 ft | 460 kts | 173° |
| 2026-04-23 07:33 | 35.84351 | -112.93791 | 30934 ft | 462 kts | 173° |
| 2026-04-23 07:33 | 35.81333 | -112.92567 | 31184 ft | 464 kts | 173° |
| 2026-04-23 07:33 | 35.78261 | -112.91320 | 31432 ft | 466 kts | 173° |
| 2026-04-23 07:34 | 35.75182 | -112.90063 | 31763 ft | 465 kts | 173° |
| 2026-04-23 07:34 | 35.72113 | -112.88810 | 32116 ft | 464 kts | 173° |
| 2026-04-23 07:34 | 35.69047 | -112.87562 | 32394 ft | 464 kts | 172° |
| 2026-04-23 07:34 | 35.65976 | -112.86318 | 32715 ft | 464 kts | 172° |
| 2026-04-23 07:35 | 35.62904 | -112.85077 | 33061 ft | 464 kts | 173° |
| 2026-04-23 07:35 | 35.59843 | -112.83842 | 33405 ft | 463 kts | 173° |
| 2026-04-23 07:35 | 35.56781 | -112.82603 | 33742 ft | 463 kts | 173° |
| 2026-04-23 07:35 | 35.53721 | -112.81365 | 34064 ft | 463 kts | 173° |
| 2026-04-23 07:36 | 35.50664 | -112.80128 | 34350 ft | 462 kts | 173° |
| 2026-04-23 07:36 | 35.47608 | -112.78893 | 34602 ft | 462 kts | 173° |
| 2026-04-23 07:36 | 35.44551 | -112.77662 | 34898 ft | 462 kts | 173° |
| 2026-04-23 07:36 | 35.41496 | -112.76435 | 35173 ft | 461 kts | 173° |
| 2026-04-23 07:37 | 35.38447 | -112.75213 | 35434 ft | 461 kts | 173° |
| 2026-04-23 07:37 | 35.35396 | -112.73994 | 35689 ft | 461 kts | 173° |
| 2026-04-23 07:37 | 35.32348 | -112.72775 | 35943 ft | 461 kts | 173° |
| 2026-04-23 07:37 | 35.29301 | -112.71552 | 36188 ft | 461 kts | 173° |
| 2026-04-23 07:38 | 35.26252 | -112.70326 | 36378 ft | 461 kts | 173° |
| 2026-04-23 07:38 | 35.23201 | -112.69100 | 36572 ft | 461 kts | 173° |
| 2026-04-23 07:38 | 35.20153 | -112.67878 | 36784 ft | 461 kts | 174° |
| 2026-04-23 07:38 | 35.17102 | -112.66659 | 36917 ft | 461 kts | 174° |
| 2026-04-23 07:39 | 35.14099 | -112.65458 | 36940 ft | 459 kts | 174° |
| 2026-04-23 07:39 | 35.08044 | -112.63039 | 36941 ft | 457 kts | 174° |
| 2026-04-23 07:40 | 35.02001 | -112.60623 | 36943 ft | 457 kts | 174° |
| 2026-04-23 07:40 | 34.95952 | -112.58212 | 36943 ft | 457 kts | 174° |
| 2026-04-23 07:41 | 34.89899 | -112.55814 | 36940 ft | 457 kts | 174° |
| 2026-04-23 07:41 | 34.83848 | -112.53423 | 36942 ft | 457 kts | 174° |
| 2026-04-23 07:42 | 34.77797 | -112.51027 | 36912 ft | 458 kts | 174° |
| 2026-04-23 07:42 | 34.74763 | -112.49827 | 37051 ft | 458 kts | 174° |
| 2026-04-23 07:42 | 34.71732 | -112.48630 | 37074 ft | 458 kts | 174° |
| 2026-04-23 07:43 | 34.65666 | -112.46204 | 37083 ft | 460 kts | 174° |
| 2026-04-23 07:43 | 34.59605 | -112.43713 | 37065 ft | 460 kts | 174° |
| 2026-04-23 07:44 | 34.53538 | -112.41221 | 37057 ft | 460 kts | 174° |
| 2026-04-23 07:44 | 34.50494 | -112.39982 | 36937 ft | 464 kts | 174° |
| 2026-04-23 07:44 | 34.47462 | -112.38757 | 36743 ft | 467 kts | 174° |
| 2026-04-23 07:44 | 34.44371 | -112.37504 | 36461 ft | 466 kts | 174° |
| 2026-04-23 07:45 | 34.41304 | -112.36256 | 36283 ft | 464 kts | 173° |
| 2026-04-23 07:45 | 34.38244 | -112.35014 | 36052 ft | 463 kts | 174° |
| 2026-04-23 07:45 | 34.35195 | -112.33779 | 35872 ft | 462 kts | 174° |
| 2026-04-23 07:45 | 34.32148 | -112.32550 | 35698 ft | 461 kts | 174° |
| 2026-04-23 07:46 | 34.29111 | -112.31325 | 35524 ft | 459 kts | 174° |
| 2026-04-23 07:46 | 34.26085 | -112.30104 | 35353 ft | 458 kts | 174° |
| 2026-04-23 07:46 | 34.23061 | -112.28884 | 35184 ft | 457 kts | 173° |
| 2026-04-23 07:46 | 34.20044 | -112.27666 | 35011 ft | 456 kts | 173° |
| 2026-04-23 07:47 | 34.17039 | -112.26456 | 34839 ft | 454 kts | 173° |
| 2026-04-23 07:47 | 34.14041 | -112.25249 | 34565 ft | 454 kts | 174° |
| 2026-04-23 07:47 | 34.11047 | -112.24045 | 34275 ft | 453 kts | 174° |
| 2026-04-23 07:47 | 34.08067 | -112.22847 | 33997 ft | 451 kts | 174° |
| 2026-04-23 07:48 | 34.05094 | -112.21653 | 33687 ft | 449 kts | 174° |
| 2026-04-23 07:48 | 34.02137 | -112.20463 | 33366 ft | 446 kts | 173° |
| 2026-04-23 07:48 | 33.99315 | -112.19326 | 33063 ft | 444 kts | 173° |
| 2026-04-23 07:48 | 33.96387 | -112.18148 | 32743 ft | 441 kts | 173° |
| 2026-04-23 07:49 | 33.93489 | -112.16983 | 32436 ft | 438 kts | 173° |
| 2026-04-23 07:49 | 33.90601 | -112.15827 | 32131 ft | 435 kts | 173° |
| 2026-04-23 07:49 | 33.87736 | -112.14684 | 31822 ft | 432 kts | 173° |
| 2026-04-23 07:49 | 33.84887 | -112.13551 | 31523 ft | 430 kts | 173° |
| 2026-04-23 07:50 | 33.82059 | -112.12427 | 31248 ft | 427 kts | 173° |
| 2026-04-23 07:50 | 33.79287 | -112.11323 | 30926 ft | 424 kts | 172° |
| 2026-04-23 07:50 | 33.76463 | -112.10195 | 30567 ft | 421 kts | 172° |
| 2026-04-23 07:50 | 33.73732 | -112.09102 | 30296 ft | 418 kts | 172° |
| 2026-04-23 07:51 | 33.70950 | -112.07986 | 29924 ft | 415 kts | 172° |
| 2026-04-23 07:51 | 33.68219 | -112.06893 | 29537 ft | 413 kts | 172° |
| 2026-04-23 07:51 | 33.65497 | -112.05810 | 29153 ft | 411 kts | 172° |
| 2026-04-23 07:51 | 33.62822 | -112.04748 | 28778 ft | 408 kts | 172° |
| 2026-04-23 07:52 | 33.60130 | -112.03680 | 28401 ft | 406 kts | 172° |
| 2026-04-23 07:52 | 33.57464 | -112.02623 | 28041 ft | 403 kts | 172° |
| 2026-04-23 07:52 | 33.54808 | -112.01570 | 27656 ft | 400 kts | 172° |
| 2026-04-23 07:52 | 33.52177 | -112.00527 | 27302 ft | 398 kts | 172° |
| 2026-04-23 07:53 | 33.49552 | -111.99486 | 26947 ft | 395 kts | 172° |
| 2026-04-23 07:53 | 33.46949 | -111.98458 | 26564 ft | 393 kts | 172° |
| 2026-04-23 07:53 | 33.44351 | -111.97455 | 26218 ft | 389 kts | 175° |
| 2026-04-23 07:53 | 33.41743 | -111.96839 | 25878 ft | 376 kts | 184° |
| 2026-04-23 07:54 | 33.39159 | -111.96553 | 25542 ft | 372 kts | 185° |
| 2026-04-23 07:54 | 33.36585 | -111.96269 | 25209 ft | 370 kts | 185° |
| 2026-04-23 07:54 | 33.34026 | -111.95981 | 24877 ft | 368 kts | 184° |
| 2026-04-23 07:54 | 33.31484 | -111.95692 | 24548 ft | 366 kts | 184° |
| 2026-04-23 07:55 | 33.28948 | -111.95401 | 24245 ft | 364 kts | 184° |
| 2026-04-23 07:55 | 33.26465 | -111.95118 | 23933 ft | 363 kts | 184° |
| 2026-04-23 07:55 | 33.23961 | -111.94834 | 23597 ft | 361 kts | 184° |
| 2026-04-23 07:55 | 33.21465 | -111.94553 | 23231 ft | 359 kts | 184° |
| 2026-04-23 07:56 | 33.18981 | -111.94276 | 22858 ft | 357 kts | 184° |
| 2026-04-23 07:56 | 33.16514 | -111.94001 | 22484 ft | 355 kts | 184° |
| 2026-04-23 07:56 | 33.14062 | -111.93725 | 22116 ft | 353 kts | 184° |
| 2026-04-23 07:56 | 33.11624 | -111.93450 | 21750 ft | 351 kts | 184° |
| 2026-04-23 07:57 | 33.09204 | -111.93178 | 21387 ft | 348 kts | 183° |
| 2026-04-23 07:57 | 33.06795 | -111.92908 | 21031 ft | 346 kts | 183° |
| 2026-04-23 07:57 | 33.04402 | -111.92640 | 20722 ft | 344 kts | 183° |
| 2026-04-23 07:57 | 33.02025 | -111.92374 | 20382 ft | 342 kts | 183° |
| 2026-04-23 07:58 | 32.99658 | -111.92111 | 20022 ft | 340 kts | 182° |
| 2026-04-23 07:58 | 32.98100 | -111.91937 | 19805 ft | 339 kts | 183° |
| 2026-04-23 07:58 | 32.95755 | -111.91676 | 19471 ft | 337 kts | 182° |
| 2026-04-23 07:58 | 32.93422 | -111.91417 | 19143 ft | 336 kts | 182° |
| 2026-04-23 07:59 | 32.91105 | -111.91151 | 18817 ft | 335 kts | 180° |
| 2026-04-23 07:59 | 32.88815 | -111.90513 | 18492 ft | 343 kts | 167° |
| 2026-04-23 07:59 | 32.86644 | -111.89261 | 18155 ft | 351 kts | 154° |
| 2026-04-23 07:59 | 32.84634 | -111.87607 | 17787 ft | 351 kts | 151° |
| 2026-04-23 08:00 | 32.82637 | -111.85941 | 17419 ft | 349 kts | 151° |
| 2026-04-23 08:00 | 32.80655 | -111.84291 | 17057 ft | 347 kts | 151° |
| 2026-04-23 08:00 | 32.78680 | -111.82658 | 16698 ft | 345 kts | 151° |
| 2026-04-23 08:00 | 32.76783 | -111.80908 | 16326 ft | 349 kts | 138° |
| 2026-04-23 08:01 | 32.75238 | -111.78672 | 15982 ft | 350 kts | 132° |
| 2026-04-23 08:01 | 32.73777 | -111.76371 | 15649 ft | 348 kts | 131° |
| 2026-04-23 08:01 | 32.72330 | -111.74077 | 15327 ft | 346 kts | 131° |
| 2026-04-23 08:01 | 32.70913 | -111.71829 | 15018 ft | 344 kts | 131° |
| 2026-04-23 08:02 | 32.69484 | -111.69565 | 14701 ft | 341 kts | 131° |
| 2026-04-23 08:02 | 32.68060 | -111.67313 | 14394 ft | 339 kts | 131° |
| 2026-04-23 08:02 | 32.66653 | -111.65086 | 14086 ft | 336 kts | 131° |
| 2026-04-23 08:02 | 32.65251 | -111.62871 | 13776 ft | 334 kts | 131° |
| 2026-04-23 08:03 | 32.63861 | -111.60676 | 13439 ft | 331 kts | 131° |
| 2026-04-23 08:03 | 32.62445 | -111.58535 | 13110 ft | 328 kts | 134° |
| 2026-04-23 08:03 | 32.61016 | -111.56444 | 12782 ft | 325 kts | 133° |
| 2026-04-23 08:03 | 32.59600 | -111.54364 | 12516 ft | 323 kts | 133° |
| 2026-04-23 08:04 | 32.58197 | -111.52301 | 12196 ft | 320 kts | 133° |
| 2026-04-23 08:04 | 32.56805 | -111.50255 | 11872 ft | 317 kts | 133° |
| 2026-04-23 08:04 | 32.55432 | -111.48263 | 11566 ft | 314 kts | 133° |
| 2026-04-23 08:04 | 32.54034 | -111.46241 | 11255 ft | 312 kts | 133° |
| 2026-04-23 08:05 | 32.52666 | -111.44261 | 10957 ft | 309 kts | 133° |
| 2026-04-23 08:05 | 32.51329 | -111.42327 | 10653 ft | 306 kts | 133° |
| 2026-04-23 08:05 | 32.49984 | -111.40380 | 10344 ft | 304 kts | 133° |
| 2026-04-23 08:05 | 32.48655 | -111.38457 | 10041 ft | 300 kts | 133° |
| 2026-04-23 08:06 | 32.47337 | -111.36554 | 9724 ft | 297 kts | 133° |
| 2026-04-23 08:06 | 32.46031 | -111.34670 | 9389 ft | 294 kts | 133° |
| 2026-04-23 08:06 | 32.44744 | -111.32811 | 9057 ft | 291 kts | 133° |
| 2026-04-23 08:06 | 32.43467 | -111.30971 | 8720 ft | 287 kts | 133° |
| 2026-04-23 08:07 | 32.42195 | -111.29172 | 8394 ft | 283 kts | 134° |
| 2026-04-23 08:07 | 32.40924 | -111.27406 | 8063 ft | 279 kts | 134° |
| 2026-04-23 08:07 | 32.39655 | -111.25690 | 7754 ft | 275 kts | 136° |
| 2026-04-23 08:07 | 32.38374 | -111.24027 | 7436 ft | 271 kts | 136° |
| 2026-04-23 08:08 | 32.37107 | -111.22425 | 7125 ft | 266 kts | 140° |
| 2026-04-23 08:08 | 32.35551 | -111.21375 | 6815 ft | 254 kts | 167° |
| 2026-04-23 08:08 | 32.33902 | -111.20670 | 6440 ft | 254 kts | 149° |
| 2026-04-23 08:08 | 32.32716 | -111.19126 | 6139 ft | 256 kts | 126° |
| 2026-04-23 08:09 | 32.31635 | -111.17484 | 5814 ft | 251 kts | 136° |
| 2026-04-23 08:09 | 32.30401 | -111.16043 | 5502 ft | 248 kts | 139° |
| 2026-04-23 08:09 | 32.29171 | -111.14621 | 5201 ft | 246 kts | 138° |
| 2026-04-23 08:09 | 32.27988 | -111.13228 | 5116 ft | 233 kts | 137° |
| 2026-04-23 08:10 | 32.26896 | -111.11938 | 5162 ft | 211 kts | 137° |
| 2026-04-23 08:10 | 32.25910 | -111.10771 | 5153 ft | 189 kts | 137° |
| 2026-04-23 08:10 | 32.24262 | -111.08827 | 5158 ft | 156 kts | 138° |
| 2026-04-23 08:11 | 32.23507 | -111.07938 | 5163 ft | 151 kts | 138° |
| 2026-04-23 08:11 | 32.22767 | -111.07067 | 5168 ft | 150 kts | 139° |
| 2026-04-23 08:11 | 32.22022 | -111.06191 | 5139 ft | 152 kts | 138° |
| 2026-04-23 08:11 | 32.21277 | -111.05313 | 5003 ft | 151 kts | 138° |
| 2026-04-23 08:12 | 32.20538 | -111.04441 | 4839 ft | 149 kts | 138° |
| 2026-04-23 08:12 | 32.19815 | -111.03589 | 4657 ft | 149 kts | 137° |
| 2026-04-23 08:12 | 32.19080 | -111.02724 | 4470 ft | 149 kts | 138° |
| 2026-04-23 08:12 | 32.18346 | -111.01860 | 4275 ft | 149 kts | 138° |
| 2026-04-23 08:13 | 32.17613 | -111.00998 | 4093 ft | 148 kts | 138° |
| 2026-04-23 08:13 | 32.16882 | -111.00138 | 3901 ft | 148 kts | 138° |
| 2026-04-23 08:13 | 32.16152 | -110.99280 | 3705 ft | 148 kts | 138° |
| 2026-04-23 08:13 | 32.15425 | -110.98424 | 3580 ft | 147 kts | 139° |
| 2026-04-23 08:14 | 32.14703 | -110.97575 | 3350 ft | 146 kts | 136° |
| 2026-04-23 08:14 | 32.13990 | -110.96733 | 3120 ft | 143 kts | 136° |
| 2026-04-23 08:14 | 32.13299 | -110.95917 | 2875 ft | 141 kts | 135° |
| 2026-04-23 08:14 | 32.12734 | -110.95253 | 2719 ft | 140 kts | 135° |
| 2026-04-23 08:15 | 32.12048 | -110.94455 | 2622 ft | 133 kts | 131° |
| 2026-04-23 08:15 | 32.11489 | -110.93801 | 2607 ft | 90 kts | 135° |
| 2026-04-23 08:15 | 32.11171 | -110.93427 | 2610 ft | 38 kts | 135° |
| 2026-04-23 08:15 | 32.11015 | -110.93366 | 2609 ft | 22 kts | 233° |
| 2026-04-23 08:16 | 32.12171 | -110.93953 | 2607 ft | 0 kts | 192° |